»·PEaware :: SWA1807 KSFO-KLAX

SWA1807 :: KSFO-KLAX

FLIGHT INFORMATION

Flight Status: Arrived
Operator:
Southwest Airlines
More flights by this operator :: More flights under this callsign
Pilot: Daniel R. (17770)
Aircraft: BOEING 737-200
(B732)
More flights by this aircraft type
Origin: KSFO San Francisco Intl
United States
Destination: KLAX Los Angeles Intl
United States
More flights between these airports :: More routes between these airports
Route: +OFFSH1 RZS SADDE8
File this flight plan on PilotEdge
Remarks:
Altitude:
(Current/Filed)
29,000ft
Speed:
(Current/Filed)
446kts
Departed: 08-Oct-18 05:41 PM
Arrived: 08-Oct-18 06:50 PM
Distance/Time
Traveled:
293nm/1:09
Distance/Time
To Go:
Arrived

Flight Plot

Page will automatically refresh every two minutes.

Flight plan parsing failed; only flown route is shown


Map Options




Map Legend


Flown Route
Filed Route
Departure Airport
Arrival Airport
Navaid (VOR, NDB)
Fix

Horizontal Profiles

Position Reports

Time Latitude Longitude Heading Altitude Ground
Speed
08-Oct-18 17:13 37.613033 -122.385512 79 32ft 0kts
08-Oct-18 17:14 37.613033 -122.385512 79 32ft 0kts
08-Oct-18 17:15 37.613033 -122.385512 79 32ft 0kts
08-Oct-18 17:16 37.613033 -122.385512 79 32ft 0kts
08-Oct-18 17:17 37.613033 -122.385512 79 32ft 0kts
08-Oct-18 17:18 37.613033 -122.385512 79 32ft 0kts
08-Oct-18 17:19 37.613033 -122.385512 79 32ft 0kts
08-Oct-18 17:20 37.613033 -122.385512 79 32ft 0kts
08-Oct-18 17:21 37.613033 -122.385512 79 32ft 0kts
08-Oct-18 17:22 37.613033 -122.385512 79 32ft 0kts
08-Oct-18 17:23 37.613033 -122.385512 79 32ft 0kts
08-Oct-18 17:24 37.613033 -122.385512 79 32ft 0kts
08-Oct-18 17:25 37.613033 -122.385512 79 32ft 0kts
08-Oct-18 17:26 37.613033 -122.385512 79 32ft 0kts
08-Oct-18 17:27 37.613033 -122.385512 79 32ft 0kts
08-Oct-18 17:28 37.613033 -122.385512 79 32ft 0kts
08-Oct-18 17:29 37.612995 -122.385762 79 32ft 0kts
08-Oct-18 17:30 37.613176 -122.386717 169 32ft 0kts
08-Oct-18 17:31 37.613176 -122.386717 169 32ft 0kts
08-Oct-18 17:32 37.613176 -122.386717 169 32ft 0kts
08-Oct-18 17:33 37.613176 -122.386717 169 32ft 0kts
08-Oct-18 17:34 37.613176 -122.386717 169 32ft 0kts
08-Oct-18 17:35 37.613176 -122.386717 169 32ft 0kts
08-Oct-18 17:36 37.613176 -122.386717 169 32ft 0kts
08-Oct-18 17:37 37.613176 -122.386717 169 32ft 0kts
08-Oct-18 17:38 37.611820 -122.387230 162 32ft 5kts
08-Oct-18 17:39 37.610669 -122.384800 122 32ft 12kts
08-Oct-18 17:40 37.609385 -122.383437 118 32ft 0kts
08-Oct-18 17:41 37.609385 -122.383437 118 32ft 0kts
08-Oct-18 17:42 37.609468 -122.381931 17 31ft 7kts
08-Oct-18 17:43 37.617460 -122.376575 27 25ft 127kts
08-Oct-18 17:44 37.659582 -122.362062 347 2329ft 160kts
08-Oct-18 17:45 37.704455 -122.373595 296 4794ft 176kts
08-Oct-18 17:46 37.673737 -122.423033 217 6677ft 244kts
08-Oct-18 17:47 37.612953 -122.471796 217 9142ft 269kts
08-Oct-18 17:48 37.548400 -122.525346 217 11204ft 300kts
08-Oct-18 17:49 37.474368 -122.589119 217 12959ft 331kts
08-Oct-18 17:50 37.397668 -122.656342 217 14975ft 342kts
08-Oct-18 17:51 37.303999 -122.660122 166 16714ft 356kts
08-Oct-18 17:52 37.205784 -122.634568 166 18300ft 367kts
08-Oct-18 17:53 37.104514 -122.607973 166 19727ft 377kts
08-Oct-18 17:54 36.996451 -122.579808 167 20039ft 416kts
08-Oct-18 17:55 36.884234 -122.550140 167 21258ft 419kts
08-Oct-18 17:56 36.769617 -122.520753 168 22266ft 424kts
08-Oct-18 17:57 36.653740 -122.490395 167 23185ft 429kts
08-Oct-18 17:58 36.536315 -122.459068 167 24007ft 434kts
08-Oct-18 17:59 36.417870 -122.426608 167 24754ft 439kts
08-Oct-18 18:00 36.308294 -122.367920 133 25296ft 440kts
08-Oct-18 18:01 36.223507 -122.267339 133 25953ft 442kts
08-Oct-18 18:02 36.134927 -122.161998 133 26534ft 445kts
08-Oct-18 18:03 36.045369 -122.055344 133 27225ft 449kts
08-Oct-18 18:04 35.995914 -121.921766 95 27808ft 433kts
08-Oct-18 18:05 35.955159 -121.780230 118 28311ft 452kts
08-Oct-18 18:06 35.880642 -121.658055 126 28951ft 454kts
08-Oct-18 18:07 35.798728 -121.538875 127 28936ft 457kts
08-Oct-18 18:08 35.730024 -121.439799 127 28947ft 460kts
08-Oct-18 18:09 35.636330 -121.305019 127 28966ft 462kts
08-Oct-18 18:10 35.566921 -121.205770 127 28933ft 458kts
08-Oct-18 18:11 35.473701 -121.072954 127 27449ft 457kts
08-Oct-18 18:12 35.405421 -120.975960 127 26935ft 449kts
08-Oct-18 18:13 35.306523 -120.882360 142 26185ft 450kts
08-Oct-18 18:14 35.207544 -120.790821 139 25639ft 444kts
08-Oct-18 18:15 35.116632 -120.691455 127 25319ft 439kts
08-Oct-18 18:16 35.038929 -120.577920 122 25028ft 435kts
08-Oct-18 18:17 34.968132 -120.459671 117 24778ft 430kts
08-Oct-18 18:18 34.901803 -120.345089 125 24613ft 429kts
08-Oct-18 18:19 34.829007 -120.236837 127 24351ft 427kts
08-Oct-18 18:20 34.754449 -120.127508 127 24093ft 425kts
08-Oct-18 18:21 34.679051 -120.017363 127 23933ft 423kts
08-Oct-18 18:22 34.603974 -119.908333 127 23874ft 419kts
08-Oct-18 18:23 34.529658 -119.800258 127 23866ft 418kts
08-Oct-18 18:24 34.462127 -119.686299 118 23512ft 416kts
08-Oct-18 18:25 34.401114 -119.569329 120 21751ft 409kts
08-Oct-18 18:26 34.340400 -119.455941 120 20102ft 396kts
08-Oct-18 18:27 34.282218 -119.348239 121 18475ft 385kts
08-Oct-18 18:28 34.226532 -119.245808 121 16472ft 372kts
08-Oct-18 18:29 34.171850 -119.145344 121 14049ft 333kts
08-Oct-18 18:30 34.123300 -119.056056 121 12987ft 305kts
08-Oct-18 18:31 34.091413 -118.967838 104 12999ft 281kts
08-Oct-18 18:32 34.067760 -118.875234 106 12151ft 309kts
08-Oct-18 18:33 34.042627 -118.781327 107 11791ft 276kts
08-Oct-18 18:34 34.029240 -118.691850 93 10707ft 259kts
08-Oct-18 18:35 34.023174 -118.607555 94 9628ft 252kts
08-Oct-18 18:36 34.016442 -118.524710 94 8265ft 248kts
08-Oct-18 18:37 34.010110 -118.447223 88 6983ft 240kts
08-Oct-18 18:38 34.016432 -118.380635 82 6112ft 233kts
08-Oct-18 18:39 34.022419 -118.326591 82 5419ft 228kts
08-Oct-18 18:40 34.029037 -118.269400 82 4988ft 221kts
08-Oct-18 18:41 34.036149 -118.208370 82 4983ft 210kts
08-Oct-18 18:42 34.043424 -118.145073 82 4987ft 214kts
08-Oct-18 18:43 34.041903 -118.078571 135 4995ft 214kts
08-Oct-18 18:44 33.989061 -118.077769 229 4993ft 206kts
08-Oct-18 18:45 33.979296 -118.134614 263 4980ft 198kts
08-Oct-18 18:46 33.975085 -118.178927 262 4676ft 150kts
08-Oct-18 18:47 33.970929 -118.219994 262 3141ft 146kts
08-Oct-18 18:48 33.966815 -118.260138 261 2496ft 154kts
08-Oct-18 18:49 33.961845 -118.308605 261 1693ft 166kts
08-Oct-18 18:50 33.956928 -118.356119 261 872ft 127kts
08-Oct-18 18:51 33.952820 -118.395586 261 268ft 129kts
08-Oct-18 18:52 33.949900 -118.423403 258 117ft 30kts
08-Oct-18 18:53 33.948659 -118.426598 228 114ft 0kts
08-Oct-18 18:54 33.946359 -118.426900 81 110ft 0kts
08-Oct-18 18:55 33.946671 -118.423722 83 116ft 27kts
08-Oct-18 18:56 33.947719 -118.414198 76 122ft 42kts
08-Oct-18 18:57 33.948884 -118.403704 89 120ft 24kts
08-Oct-18 18:58 33.948206 -118.400092 153 114ft 7kts
08-Oct-18 18:59 33.947740 -118.400210 233 115ft 7kts
08-Oct-18 19:00 33.947523 -118.400754 240 117ft 0kts
08-Oct-18 19:01 33.947523 -118.400754 240 117ft 0kts
08-Oct-18 19:02 33.947523 -118.400754 240 117ft 0kts
08-Oct-18 19:03 33.947523 -118.400754 240 117ft 0kts
08-Oct-18 19:04 33.947523 -118.400754 240 117ft 0kts
08-Oct-18 19:05 33.947523 -118.400754 240 117ft 0kts
08-Oct-18 19:06 33.947523 -118.400754 240 117ft 0kts
08-Oct-18 19:07 33.947523 -118.400754 240 117ft 0kts

Navigation Log

Ident Type
Flight plan parsing failed, navigation log unavailable